sensor_id;sensor_type;location;lat;lon;timestamp;pressure;altitude;pressure_sealevel;temperature;humidity
77366;BME280;66430;50.182;11.704;2023-06-14T00:00:30;94476.15;;;16.95;30.49
77366;BME280;66430;50.182;11.704;2023-06-14T00:02:55;94478.96;;;17.06;30.69
77366;BME280;66430;50.182;11.704;2023-06-14T00:05:21;94477.21;;;16.96;30.75
77366;BME280;66430;50.182;11.704;2023-06-14T00:07:46;94474.45;;;16.86;30.92
77366;BME280;66430;50.182;11.704;2023-06-14T00:10:11;94471.98;;;16.84;30.89
77366;BME280;66430;50.182;11.704;2023-06-14T00:12:37;94470.67;;;16.66;31.03
77366;BME280;66430;50.182;11.704;2023-06-14T00:15:02;94469.40;;;16.68;30.94
77366;BME280;66430;50.182;11.704;2023-06-14T00:17:27;94465.29;;;16.43;30.99
77366;BME280;66430;50.182;11.704;2023-06-14T00:19:57;94466.80;;;16.30;31.33
77366;BME280;66430;50.182;11.704;2023-06-14T00:22:18;94470.02;;;16.61;31.26
77366;BME280;66430;50.182;11.704;2023-06-14T00:24:42;94467.84;;;16.59;31.34
77366;BME280;66430;50.182;11.704;2023-06-14T00:27:08;94466.56;;;16.77;31.43
77366;BME280;66430;50.182;11.704;2023-06-14T00:29:34;94465.43;;;16.29;31.37
77366;BME280;66430;50.182;11.704;2023-06-14T00:31:59;94465.27;;;16.40;31.67
77366;BME280;66430;50.182;11.704;2023-06-14T00:34:24;94469.35;;;16.40;31.58
77366;BME280;66430;50.182;11.704;2023-06-14T00:36:52;94463.52;;;16.36;31.72
77366;BME280;66430;50.182;11.704;2023-06-14T00:39:15;94457.85;;;16.39;31.53
77366;BME280;66430;50.182;11.704;2023-06-14T00:41:40;94459.01;;;16.32;31.59
77366;BME280;66430;50.182;11.704;2023-06-14T00:44:06;94457.48;;;16.31;31.71
77366;BME280;66430;50.182;11.704;2023-06-14T00:46:31;94458.21;;;16.30;31.58
77366;BME280;66430;50.182;11.704;2023-06-14T00:48:57;94455.62;;;16.27;31.62
77366;BME280;66430;50.182;11.704;2023-06-14T00:51:22;94451.91;;;16.16;31.81
77366;BME280;66430;50.182;11.704;2023-06-14T00:53:48;94451.42;;;16.32;32.00
77366;BME280;66430;50.182;11.704;2023-06-14T00:56:13;94454.85;;;15.99;32.13
77366;BME280;66430;50.182;11.704;2023-06-14T00:58:38;94454.91;;;16.11;32.39
77366;BME280;66430;50.182;11.704;2023-06-14T01:01:03;94453.02;;;16.06;32.46
77366;BME280;66430;50.182;11.704;2023-06-14T01:03:29;94453.66;;;16.32;32.29
77366;BME280;66430;50.182;11.704;2023-06-14T01:06:01;94451.63;;;16.27;32.49
77366;BME280;66430;50.182;11.704;2023-06-14T01:08:27;94452.09;;;15.85;32.49
77366;BME280;66430;50.182;11.704;2023-06-14T01:10:59;94455.16;;;16.08;32.55
77366;BME280;66430;50.182;11.704;2023-06-14T01:13:15;94455.70;;;16.06;32.74
77366;BME280;66430;50.182;11.704;2023-06-14T01:15:40;94455.75;;;16.23;32.89
77366;BME280;66430;50.182;11.704;2023-06-14T01:18:02;94455.79;;;15.97;32.81
77366;BME280;66430;50.182;11.704;2023-06-14T01:20:29;94457.40;;;16.13;32.82
77366;BME280;66430;50.182;11.704;2023-06-14T01:22:53;94456.57;;;15.85;33.14
77366;BME280;66430;50.182;11.704;2023-06-14T01:25:17;94455.19;;;15.93;32.86
77366;BME280;66430;50.182;11.704;2023-06-14T01:27:42;94454.02;;;15.88;32.98
77366;BME280;66430;50.182;11.704;2023-06-14T01:30:09;94452.74;;;15.65;32.88
77366;BME280;66430;50.182;11.704;2023-06-14T01:32:34;94452.17;;;16.12;32.84
77366;BME280;66430;50.182;11.704;2023-06-14T01:34:59;94448.43;;;16.09;32.74
77366;BME280;66430;50.182;11.704;2023-06-14T01:37:24;94448.56;;;15.58;32.84
77366;BME280;66430;50.182;11.704;2023-06-14T01:39:50;94446.56;;;15.80;32.91
77366;BME280;66430;50.182;11.704;2023-06-14T01:42:16;94445.17;;;16.00;33.12
77366;BME280;66430;50.182;11.704;2023-06-14T01:44:41;94443.64;;;16.00;33.18
77366;BME280;66430;50.182;11.704;2023-06-14T01:47:06;94441.13;;;15.92;33.27
77366;BME280;66430;50.182;11.704;2023-06-14T01:49:33;94442.23;;;15.90;33.23
77366;BME280;66430;50.182;11.704;2023-06-14T01:51:56;94445.23;;;15.90;33.15
77366;BME280;66430;50.182;11.704;2023-06-14T01:54:22;94445.53;;;15.42;32.94
77366;BME280;66430;50.182;11.704;2023-06-14T01:56:47;94444.75;;;15.94;32.90
77366;BME280;66430;50.182;11.704;2023-06-14T01:59:12;94447.90;;;15.89;33.32
77366;BME280;66430;50.182;11.704;2023-06-14T02:01:38;94450.74;;;15.48;33.63
77366;BME280;66430;50.182;11.704;2023-06-14T02:04:03;94453.83;;;15.65;33.59
77366;BME280;66430;50.182;11.704;2023-06-14T02:06:29;94455.61;;;15.54;33.64
77366;BME280;66430;50.182;11.704;2023-06-14T02:08:54;94457.91;;;15.63;34.04
77366;BME280;66430;50.182;11.704;2023-06-14T02:11:20;94461.10;;;15.20;34.12
77366;BME280;66430;50.182;11.704;2023-06-14T02:13:45;94461.47;;;15.30;34.55
77366;BME280;66430;50.182;11.704;2023-06-14T02:16:10;94459.91;;;15.03;34.35
77366;BME280;66430;50.182;11.704;2023-06-14T02:18:36;94457.82;;;14.98;34.43
77366;BME280;66430;50.182;11.704;2023-06-14T02:21:01;94461.13;;;15.14;34.59
77366;BME280;66430;50.182;11.704;2023-06-14T02:23:27;94462.28;;;15.30;34.65
77366;BME280;66430;50.182;11.704;2023-06-14T02:25:52;94469.90;;;15.07;34.51
77366;BME280;66430;50.182;11.704;2023-06-14T02:28:18;94476.56;;;15.09;34.31
77366;BME280;66430;50.182;11.704;2023-06-14T02:30:43;94478.29;;;15.21;34.29
77366;BME280;66430;50.182;11.704;2023-06-14T02:33:08;94475.50;;;15.09;34.50
77366;BME280;66430;50.182;11.704;2023-06-14T02:35:34;94476.46;;;15.01;34.64
77366;BME280;66430;50.182;11.704;2023-06-14T02:37:59;94476.77;;;14.64;34.91
77366;BME280;66430;50.182;11.704;2023-06-14T02:40:25;94475.90;;;14.32;35.40
77366;BME280;66430;50.182;11.704;2023-06-14T02:42:50;94473.56;;;14.39;35.29
77366;BME280;66430;50.182;11.704;2023-06-14T02:45:16;94467.78;;;14.61;35.28
77366;BME280;66430;50.182;11.704;2023-06-14T02:47:41;94467.59;;;14.38;35.23
77366;BME280;66430;50.182;11.704;2023-06-14T02:50:09;94469.48;;;14.22;35.40
77366;BME280;66430;50.182;11.704;2023-06-14T02:52:33;94469.89;;;14.54;35.35
77366;BME280;66430;50.182;11.704;2023-06-14T02:54:57;94471.36;;;14.35;35.55
77366;BME280;66430;50.182;11.704;2023-06-14T02:57:23;94474.84;;;14.30;35.63
77366;BME280;66430;50.182;11.704;2023-06-14T02:59:48;94474.97;;;14.05;36.09
77366;BME280;66430;50.182;11.704;2023-06-14T03:02:13;94474.40;;;13.74;36.46
77366;BME280;66430;50.182;11.704;2023-06-14T03:04:38;94475.47;;;13.90;36.71
77366;BME280;66430;50.182;11.704;2023-06-14T03:07:04;94473.91;;;13.58;36.85
77366;BME280;66430;50.182;11.704;2023-06-14T03:09:29;94474.08;;;14.13;36.32
77366;BME280;66430;50.182;11.704;2023-06-14T03:11:54;94472.62;;;14.41;36.24
77366;BME280;66430;50.182;11.704;2023-06-14T03:14:19;94476.26;;;13.65;36.76
77366;BME280;66430;50.182;11.704;2023-06-14T03:16:46;94476.70;;;13.75;36.61
77366;BME280;66430;50.182;11.704;2023-06-14T03:19:10;94480.03;;;13.76;36.44
77366;BME280;66430;50.182;11.704;2023-06-14T03:21:36;94479.34;;;13.91;36.68
77366;BME280;66430;50.182;11.704;2023-06-14T03:24:01;94478.20;;;13.71;36.89
77366;BME280;66430;50.182;11.704;2023-06-14T03:26:27;94475.88;;;14.12;36.45
77366;BME280;66430;50.182;11.704;2023-06-14T03:28:53;94474.82;;;14.29;36.19
77366;BME280;66430;50.182;11.704;2023-06-14T03:31:18;94473.39;;;14.22;36.07
77366;BME280;66430;50.182;11.704;2023-06-14T03:33:43;94475.26;;;14.42;35.69
77366;BME280;66430;50.182;11.704;2023-06-14T03:36:09;94481.12;;;14.03;36.02
77366;BME280;66430;50.182;11.704;2023-06-14T03:38:34;94487.38;;;14.07;36.35
77366;BME280;66430;50.182;11.704;2023-06-14T03:41:00;94485.25;;;14.22;36.32
77366;BME280;66430;50.182;11.704;2023-06-14T03:43:25;94488.56;;;14.38;36.20
77366;BME280;66430;50.182;11.704;2023-06-14T03:45:51;94488.54;;;14.15;36.23
77366;BME280;66430;50.182;11.704;2023-06-14T03:48:17;94488.80;;;14.46;35.76
77366;BME280;66430;50.182;11.704;2023-06-14T03:50:43;94495.18;;;14.62;35.60
77366;BME280;66430;50.182;11.704;2023-06-14T03:53:08;94502.49;;;14.14;36.03
77366;BME280;66430;50.182;11.704;2023-06-14T03:55:34;94506.77;;;14.88;35.51
77366;BME280;66430;50.182;11.704;2023-06-14T03:57:59;94508.87;;;15.16;35.08
77366;BME280;66430;50.182;11.704;2023-06-14T04:00:25;94512.16;;;15.22;34.95
77366;BME280;66430;50.182;11.704;2023-06-14T04:02:50;94514.11;;;15.40;34.67
77366;BME280;66430;50.182;11.704;2023-06-14T04:05:16;94516.61;;;15.54;34.36
77366;BME280;66430;50.182;11.704;2023-06-14T04:07:41;94517.81;;;15.64;34.24
77366;BME280;66430;50.182;11.704;2023-06-14T04:10:08;94520.19;;;15.87;34.28
77366;BME280;66430;50.182;11.704;2023-06-14T04:12:35;94524.40;;;15.70;33.99
77366;BME280;66430;50.182;11.704;2023-06-14T04:14:58;94525.63;;;15.86;33.67
77366;BME280;66430;50.182;11.704;2023-06-14T04:17:23;94527.77;;;15.81;33.62
77366;BME280;66430;50.182;11.704;2023-06-14T04:19:48;94533.35;;;16.46;33.59
77366;BME280;66430;50.182;11.704;2023-06-14T04:22:13;94530.17;;;15.96;33.47
77366;BME280;66430;50.182;11.704;2023-06-14T04:24:39;94528.10;;;16.15;33.11
77366;BME280;66430;50.182;11.704;2023-06-14T04:27:05;94529.95;;;16.13;33.08
77366;BME280;66430;50.182;11.704;2023-06-14T04:29:31;94530.02;;;16.14;33.05
77366;BME280;66430;50.182;11.704;2023-06-14T04:31:57;94526.16;;;16.59;33.15
77366;BME280;66430;50.182;11.704;2023-06-14T04:34:21;94528.65;;;16.12;33.43
77366;BME280;66430;50.182;11.704;2023-06-14T04:36:47;94530.71;;;15.90;33.89
77366;BME280;66430;50.182;11.704;2023-06-14T04:39:13;94530.90;;;15.96;34.49
77366;BME280;66430;50.182;11.704;2023-06-14T04:41:38;94535.20;;;15.62;34.15
77366;BME280;66430;50.182;11.704;2023-06-14T04:44:04;94532.00;;;15.71;34.39
77366;BME280;66430;50.182;11.704;2023-06-14T04:46:29;94539.27;;;15.83;34.72
77366;BME280;66430;50.182;11.704;2023-06-14T04:48:55;94538.84;;;16.10;33.92
77366;BME280;66430;50.182;11.704;2023-06-14T04:51:20;94533.94;;;15.99;34.55
77366;BME280;66430;50.182;11.704;2023-06-14T04:53:45;94534.55;;;15.88;34.64
77366;BME280;66430;50.182;11.704;2023-06-14T04:56:11;94544.05;;;15.69;34.72
77366;BME280;66430;50.182;11.704;2023-06-14T04:58:37;94542.38;;;15.94;35.02
77366;BME280;66430;50.182;11.704;2023-06-14T05:01:02;94547.79;;;16.14;34.16
77366;BME280;66430;50.182;11.704;2023-06-14T05:03:27;94550.48;;;15.88;34.37
77366;BME280;66430;50.182;11.704;2023-06-14T05:05:52;94549.80;;;15.53;35.51
77366;BME280;66430;50.182;11.704;2023-06-14T05:08:18;94552.49;;;15.63;35.20
77366;BME280;66430;50.182;11.704;2023-06-14T05:10:44;94547.14;;;15.76;34.91
77366;BME280;66430;50.182;11.704;2023-06-14T05:13:09;94546.95;;;15.97;35.28
77366;BME280;66430;50.182;11.704;2023-06-14T05:15:35;94550.04;;;15.74;35.71
77366;BME280;66430;50.182;11.704;2023-06-14T05:18:00;94548.09;;;15.39;35.51
77366;BME280;66430;50.182;11.704;2023-06-14T05:20:26;94549.97;;;15.78;35.61
77366;BME280;66430;50.182;11.704;2023-06-14T05:22:52;94553.31;;;15.89;35.67
77366;BME280;66430;50.182;11.704;2023-06-14T05:25:17;94553.67;;;15.09;36.36
77366;BME280;66430;50.182;11.704;2023-06-14T05:27:42;94557.01;;;15.79;36.33
77366;BME280;66430;50.182;11.704;2023-06-14T05:30:09;94553.00;;;15.38;35.97
77366;BME280;66430;50.182;11.704;2023-06-14T05:32:35;94550.64;;;15.38;36.23
77366;BME280;66430;50.182;11.704;2023-06-14T05:34:59;94555.56;;;15.37;36.54
77366;BME280;66430;50.182;11.704;2023-06-14T05:37:25;94555.89;;;15.53;35.79
77366;BME280;66430;50.182;11.704;2023-06-14T05:39:51;94563.61;;;15.98;35.20
77366;BME280;66430;50.182;11.704;2023-06-14T05:42:16;94565.13;;;15.64;36.36
77366;BME280;66430;50.182;11.704;2023-06-14T05:44:42;94567.99;;;16.17;35.23
77366;BME280;66430;50.182;11.704;2023-06-14T05:47:07;94572.28;;;16.50;34.66
77366;BME280;66430;50.182;11.704;2023-06-14T05:49:33;94566.96;;;16.93;34.81
77366;BME280;66430;50.182;11.704;2023-06-14T05:51:58;94568.42;;;16.84;34.20
77366;BME280;66430;50.182;11.704;2023-06-14T05:54:24;94566.17;;;16.88;33.96
77366;BME280;66430;50.182;11.704;2023-06-14T05:56:50;94568.26;;;17.09;34.05
77366;BME280;66430;50.182;11.704;2023-06-14T05:59:15;94564.64;;;16.38;34.12
77366;BME280;66430;50.182;11.704;2023-06-14T06:01:40;94568.25;;;16.59;33.79
77366;BME280;66430;50.182;11.704;2023-06-14T06:04:06;94570.33;;;17.02;33.94
77366;BME280;66430;50.182;11.704;2023-06-14T06:06:32;94569.98;;;17.29;33.29
77366;BME280;66430;50.182;11.704;2023-06-14T06:08:57;94573.30;;;16.84;33.13
77366;BME280;66430;50.182;11.704;2023-06-14T06:11:22;94572.11;;;16.86;34.00
77366;BME280;66430;50.182;11.704;2023-06-14T06:13:48;94574.87;;;17.26;34.05
77366;BME280;66430;50.182;11.704;2023-06-14T06:16:13;94579.30;;;16.74;33.67
77366;BME280;66430;50.182;11.704;2023-06-14T06:18:39;94575.84;;;16.23;35.97
77366;BME280;66430;50.182;11.704;2023-06-14T06:21:04;94580.99;;;16.44;35.64
77366;BME280;66430;50.182;11.704;2023-06-14T06:23:29;94579.92;;;16.12;36.95
77366;BME280;66430;50.182;11.704;2023-06-14T06:25:54;94587.18;;;16.08;35.59
77366;BME280;66430;50.182;11.704;2023-06-14T06:28:19;94592.18;;;15.86;35.33
77366;BME280;66430;50.182;11.704;2023-06-14T06:30:45;94586.18;;;15.95;36.97
77366;BME280;66430;50.182;11.704;2023-06-14T06:33:10;94588.32;;;16.13;36.85
77366;BME280;66430;50.182;11.704;2023-06-14T06:35:35;94592.49;;;16.25;35.87
77366;BME280;66430;50.182;11.704;2023-06-14T06:38:00;94590.27;;;16.00;35.97
77366;BME280;66430;50.182;11.704;2023-06-14T06:40:26;94594.00;;;16.60;35.43
77366;BME280;66430;50.182;11.704;2023-06-14T06:42:51;94597.01;;;16.48;35.92
77366;BME280;66430;50.182;11.704;2023-06-14T06:45:17;94593.36;;;16.36;35.99
77366;BME280;66430;50.182;11.704;2023-06-14T06:47:43;94595.56;;;16.47;35.66
77366;BME280;66430;50.182;11.704;2023-06-14T06:50:09;94592.16;;;16.76;34.84
77366;BME280;66430;50.182;11.704;2023-06-14T06:52:34;94593.21;;;16.49;35.67
77366;BME280;66430;50.182;11.704;2023-06-14T06:54:59;94591.13;;;16.17;36.09
77366;BME280;66430;50.182;11.704;2023-06-14T06:57:25;94597.64;;;16.60;35.28
77366;BME280;66430;50.182;11.704;2023-06-14T06:59:50;94598.11;;;16.52;34.97
77366;BME280;66430;50.182;11.704;2023-06-14T07:02:15;94599.26;;;16.05;35.29
77366;BME280;66430;50.182;11.704;2023-06-14T07:04:41;94598.10;;;16.79;35.22
77366;BME280;66430;50.182;11.704;2023-06-14T07:07:07;94598.51;;;17.44;33.73
77366;BME280;66430;50.182;11.704;2023-06-14T07:09:31;94604.60;;;16.99;34.55
77366;BME280;66430;50.182;11.704;2023-06-14T07:11:58;94609.12;;;17.05;33.82
77366;BME280;66430;50.182;11.704;2023-06-14T07:14:22;94609.32;;;17.07;34.15
77366;BME280;66430;50.182;11.704;2023-06-14T07:16:47;94605.78;;;17.54;33.20
77366;BME280;66430;50.182;11.704;2023-06-14T07:19:12;94609.20;;;17.10;33.48
77366;BME280;66430;50.182;11.704;2023-06-14T07:21:37;94605.52;;;17.75;33.75
77366;BME280;66430;50.182;11.704;2023-06-14T07:24:03;94612.12;;;17.95;31.96
77366;BME280;66430;50.182;11.704;2023-06-14T07:26:28;94614.06;;;17.60;31.35
77366;BME280;66430;50.182;11.704;2023-06-14T07:28:53;94619.49;;;18.01;31.35
77366;BME280;66430;50.182;11.704;2023-06-14T07:31:18;94619.96;;;17.50;32.65
77366;BME280;66430;50.182;11.704;2023-06-14T07:33:44;94620.22;;;17.54;32.23
77366;BME280;66430;50.182;11.704;2023-06-14T07:36:09;94617.87;;;17.85;31.30
77366;BME280;66430;50.182;11.704;2023-06-14T07:38:35;94620.50;;;18.19;30.22
77366;BME280;66430;50.182;11.704;2023-06-14T07:41:00;94622.05;;;18.20;30.36
77366;BME280;66430;50.182;11.704;2023-06-14T07:43:26;94623.03;;;18.10;31.11
77366;BME280;66430;50.182;11.704;2023-06-14T07:45:51;94620.21;;;18.61;31.05
77366;BME280;66430;50.182;11.704;2023-06-14T07:48:16;94621.12;;;18.13;31.09
77366;BME280;66430;50.182;11.704;2023-06-14T07:50:41;94620.79;;;17.93;29.71
77366;BME280;66430;50.182;11.704;2023-06-14T07:53:07;94622.58;;;18.15;30.05
77366;BME280;66430;50.182;11.704;2023-06-14T07:55:32;94622.40;;;18.00;29.68
77366;BME280;66430;50.182;11.704;2023-06-14T07:57:58;94627.71;;;18.14;29.73
77366;BME280;66430;50.182;11.704;2023-06-14T08:00:23;94622.92;;;18.77;30.95
77366;BME280;66430;50.182;11.704;2023-06-14T08:02:47;94624.58;;;18.69;30.89
77366;BME280;66430;50.182;11.704;2023-06-14T08:05:13;94625.07;;;19.25;30.10
77366;BME280;66430;50.182;11.704;2023-06-14T08:07:39;94636.52;;;18.62;28.99
77366;BME280;66430;50.182;11.704;2023-06-14T08:10:03;94628.36;;;18.59;29.24
77366;BME280;66430;50.182;11.704;2023-06-14T08:12:28;94622.26;;;18.65;30.58
77366;BME280;66430;50.182;11.704;2023-06-14T08:14:54;94625.78;;;18.88;29.88
77366;BME280;66430;50.182;11.704;2023-06-14T08:17:19;94632.26;;;18.60;29.86
77366;BME280;66430;50.182;11.704;2023-06-14T08:19:45;94626.62;;;18.86;29.32
77366;BME280;66430;50.182;11.704;2023-06-14T08:22:10;94638.48;;;18.77;30.57
77366;BME280;66430;50.182;11.704;2023-06-14T08:24:36;94633.86;;;18.78;30.25
77366;BME280;66430;50.182;11.704;2023-06-14T08:27:01;94635.65;;;18.79;30.14
77366;BME280;66430;50.182;11.704;2023-06-14T08:29:26;94623.17;;;19.70;30.44
77366;BME280;66430;50.182;11.704;2023-06-14T08:31:51;94633.07;;;19.60;30.23
77366;BME280;66430;50.182;11.704;2023-06-14T08:34:17;94627.38;;;19.76;30.46
77366;BME280;66430;50.182;11.704;2023-06-14T08:36:42;94631.75;;;19.49;28.95
77366;BME280;66430;50.182;11.704;2023-06-14T08:39:07;94634.60;;;19.31;29.01
77366;BME280;66430;50.182;11.704;2023-06-14T08:41:32;94641.48;;;19.87;29.07
77366;BME280;66430;50.182;11.704;2023-06-14T08:43:57;94647.07;;;19.37;28.56
77366;BME280;66430;50.182;11.704;2023-06-14T08:46:26;94640.73;;;19.17;28.89
77366;BME280;66430;50.182;11.704;2023-06-14T08:48:49;94642.59;;;20.12;29.02
77366;BME280;66430;50.182;11.704;2023-06-14T08:51:14;94637.21;;;20.23;28.84
77366;BME280;66430;50.182;11.704;2023-06-14T08:53:39;94641.91;;;20.03;27.70
77366;BME280;66430;50.182;11.704;2023-06-14T08:56:05;94639.35;;;19.97;29.22
77366;BME280;66430;50.182;11.704;2023-06-14T08:58:30;94641.05;;;20.52;28.39
77366;BME280;66430;50.182;11.704;2023-06-14T09:00:56;94638.25;;;20.54;28.57
77366;BME280;66430;50.182;11.704;2023-06-14T09:03:20;94639.44;;;20.71;28.26
77366;BME280;66430;50.182;11.704;2023-06-14T09:05:45;94640.06;;;20.32;27.41
77366;BME280;66430;50.182;11.704;2023-06-14T09:08:11;94641.60;;;20.99;28.49
77366;BME280;66430;50.182;11.704;2023-06-14T09:10:38;94647.00;;;20.83;27.79
77366;BME280;66430;50.182;11.704;2023-06-14T09:13:02;94646.21;;;20.97;26.98
77366;BME280;66430;50.182;11.704;2023-06-14T09:15:27;94651.44;;;20.90;26.79
77366;BME280;66430;50.182;11.704;2023-06-14T09:17:53;94649.55;;;21.07;26.28
77366;BME280;66430;50.182;11.704;2023-06-14T09:20:24;94652.67;;;21.47;26.42
77366;BME280;66430;50.182;11.704;2023-06-14T09:22:43;94655.31;;;20.93;27.43
77366;BME280;66430;50.182;11.704;2023-06-14T09:25:09;94659.57;;;21.40;27.08
77366;BME280;66430;50.182;11.704;2023-06-14T09:27:34;94661.93;;;21.30;25.68
77366;BME280;66430;50.182;11.704;2023-06-14T09:29:59;94657.82;;;20.86;26.03
77366;BME280;66430;50.182;11.704;2023-06-14T09:32:25;94652.93;;;21.65;25.74
77366;BME280;66430;50.182;11.704;2023-06-14T09:34:51;94654.06;;;21.14;27.17
77366;BME280;66430;50.182;11.704;2023-06-14T09:37:27;94652.94;;;21.22;27.76
77366;BME280;66430;50.182;11.704;2023-06-14T09:39:49;94659.79;;;20.97;26.86
77366;BME280;66430;50.182;11.704;2023-06-14T09:42:16;94657.37;;;21.19;26.24
77366;BME280;66430;50.182;11.704;2023-06-14T09:44:31;94651.70;;;21.13;27.03
77366;BME280;66430;50.182;11.704;2023-06-14T09:46:57;94659.43;;;21.27;26.43
77366;BME280;66430;50.182;11.704;2023-06-14T09:49:22;94653.61;;;20.85;27.22
77366;BME280;66430;50.182;11.704;2023-06-14T09:51:51;94653.01;;;21.34;25.85
77366;BME280;66430;50.182;11.704;2023-06-14T09:54:16;94652.46;;;21.82;26.02
77366;BME280;66430;50.182;11.704;2023-06-14T09:56:42;94658.28;;;21.65;25.11
77366;BME280;66430;50.182;11.704;2023-06-14T09:59:06;94663.29;;;22.02;26.05
77366;BME280;66430;50.182;11.704;2023-06-14T10:01:31;94664.46;;;21.39;26.05
77366;BME280;66430;50.182;11.704;2023-06-14T10:03:57;94660.49;;;21.01;26.99
77366;BME280;66430;50.182;11.704;2023-06-14T10:06:19;94659.87;;;21.40;27.69
77366;BME280;66430;50.182;11.704;2023-06-14T10:08:44;94664.76;;;21.55;25.48
77366;BME280;66430;50.182;11.704;2023-06-14T10:11:09;94664.28;;;21.91;27.33
77366;BME280;66430;50.182;11.704;2023-06-14T10:13:34;94661.26;;;21.95;26.41
77366;BME280;66430;50.182;11.704;2023-06-14T10:16:07;94663.83;;;21.90;26.74
77366;BME280;66430;50.182;11.704;2023-06-14T10:18:31;94671.28;;;22.15;26.00
77366;BME280;66430;50.182;11.704;2023-06-14T10:20:58;94658.93;;;22.16;24.65
77366;BME280;66430;50.182;11.704;2023-06-14T10:23:18;94663.29;;;21.44;26.11
77366;BME280;66430;50.182;11.704;2023-06-14T10:25:42;94662.94;;;21.56;25.60
77366;BME280;66430;50.182;11.704;2023-06-14T10:28:15;94660.00;;;22.09;24.97
77366;BME280;66430;50.182;11.704;2023-06-14T10:30:31;94657.27;;;21.94;26.66
77366;BME280;66430;50.182;11.704;2023-06-14T10:33:04;94661.35;;;22.58;25.67
77366;BME280;66430;50.182;11.704;2023-06-14T10:35:21;94667.78;;;21.62;26.02
77366;BME280;66430;50.182;11.704;2023-06-14T10:37:46;94663.47;;;21.73;26.63
77366;BME280;66430;50.182;11.704;2023-06-14T10:42:37;94659.47;;;21.96;25.50
77366;BME280;66430;50.182;11.704;2023-06-14T10:45:02;94655.12;;;22.07;25.90
77366;BME280;66430;50.182;11.704;2023-06-14T10:47:29;94648.64;;;22.25;26.42
77366;BME280;66430;50.182;11.704;2023-06-14T10:49:54;94660.89;;;21.72;25.25
77366;BME280;66430;50.182;11.704;2023-06-14T10:52:24;94666.50;;;21.45;26.09
77366;BME280;66430;50.182;11.704;2023-06-14T10:54:59;94655.64;;;22.06;26.18
77366;BME280;66430;50.182;11.704;2023-06-14T10:57:08;94650.36;;;22.38;26.11
77366;BME280;66430;50.182;11.704;2023-06-14T10:59:34;94661.04;;;21.76;25.88
77366;BME280;66430;50.182;11.704;2023-06-14T11:02:11;94655.74;;;22.22;25.58
77366;BME280;66430;50.182;11.704;2023-06-14T11:04:31;94650.72;;;22.53;25.95
77366;BME280;66430;50.182;11.704;2023-06-14T11:06:51;94659.74;;;22.48;25.85
77366;BME280;66430;50.182;11.704;2023-06-14T11:09:32;94663.34;;;22.06;25.93
77366;BME280;66430;50.182;11.704;2023-06-14T11:11:43;94656.12;;;22.47;25.17
77366;BME280;66430;50.182;11.704;2023-06-14T11:14:06;94652.65;;;22.51;25.47
77366;BME280;66430;50.182;11.704;2023-06-14T11:16:31;94658.17;;;21.98;24.19
77366;BME280;66430;50.182;11.704;2023-06-14T11:18:57;94654.37;;;22.35;24.12
77366;BME280;66430;50.182;11.704;2023-06-14T11:21:23;94657.16;;;22.50;24.41
77366;BME280;66430;50.182;11.704;2023-06-14T11:23:50;94664.04;;;22.25;25.21
77366;BME280;66430;50.182;11.704;2023-06-14T11:26:13;94668.31;;;21.54;25.30
77366;BME280;66430;50.182;11.704;2023-06-14T11:28:40;94668.78;;;21.69;25.59
77366;BME280;66430;50.182;11.704;2023-06-14T11:31:04;94655.67;;;22.73;24.15
77366;BME280;66430;50.182;11.704;2023-06-14T11:33:29;94652.95;;;23.24;23.48
77366;BME280;66430;50.182;11.704;2023-06-14T11:35:54;94652.81;;;22.43;24.39
77366;BME280;66430;50.182;11.704;2023-06-14T11:38:19;94659.72;;;21.94;24.21
77366;BME280;66430;50.182;11.704;2023-06-14T11:40:45;94651.15;;;21.95;24.04
77366;BME280;66430;50.182;11.704;2023-06-14T11:43:09;94648.09;;;22.92;23.76
77366;BME280;66430;50.182;11.704;2023-06-14T11:45:35;94645.88;;;23.22;23.55
77366;BME280;66430;50.182;11.704;2023-06-14T11:48:00;94646.27;;;22.94;24.62
77366;BME280;66430;50.182;11.704;2023-06-14T11:50:26;94650.72;;;22.21;23.87
77366;BME280;66430;50.182;11.704;2023-06-14T11:52:55;94657.84;;;21.57;24.79
77366;BME280;66430;50.182;11.704;2023-06-14T11:55:16;94649.66;;;21.97;25.48
77366;BME280;66430;50.182;11.704;2023-06-14T11:57:42;94649.35;;;22.09;25.54
77366;BME280;66430;50.182;11.704;2023-06-14T12:00:08;94649.98;;;21.85;25.22
77366;BME280;66430;50.182;11.704;2023-06-14T12:02:32;94648.09;;;21.98;24.67
77366;BME280;66430;50.182;11.704;2023-06-14T12:05:04;94650.13;;;21.85;25.23
77366;BME280;66430;50.182;11.704;2023-06-14T12:07:22;94649.16;;;22.16;24.45
77366;BME280;66430;50.182;11.704;2023-06-14T12:12:13;94639.51;;;22.62;25.39
77366;BME280;66430;50.182;11.704;2023-06-14T12:14:43;94643.48;;;22.57;25.20
77366;BME280;66430;50.182;11.704;2023-06-14T12:17:06;94648.78;;;21.83;25.29
77366;BME280;66430;50.182;11.704;2023-06-14T12:19:28;94646.77;;;21.93;25.31
77366;BME280;66430;50.182;11.704;2023-06-14T12:21:53;94640.59;;;22.06;25.26
77366;BME280;66430;50.182;11.704;2023-06-14T12:24:19;94638.21;;;22.41;24.76
77366;BME280;66430;50.182;11.704;2023-06-14T12:26:44;94637.02;;;22.73;23.47
77366;BME280;66430;50.182;11.704;2023-06-14T12:29:09;94638.84;;;22.79;25.03
77366;BME280;66430;50.182;11.704;2023-06-14T12:31:35;94638.47;;;22.20;23.44
77366;BME280;66430;50.182;11.704;2023-06-14T12:34:00;94642.53;;;21.69;25.77
77366;BME280;66430;50.182;11.704;2023-06-14T12:36:26;94640.96;;;21.81;26.01
77366;BME280;66430;50.182;11.704;2023-06-14T12:38:50;94644.54;;;21.87;25.17
77366;BME280;66430;50.182;11.704;2023-06-14T12:41:15;94635.48;;;22.94;23.48
77366;BME280;66430;50.182;11.704;2023-06-14T12:43:40;94632.25;;;22.64;23.86